sensor_id;sensor_type;location;lat;lon;timestamp;pressure;altitude;pressure_sealevel;temperature;humidity
64292;BME280;50628;51.008;13.658;2023-08-08T00:00:26;99499.91;;;13.28;100.00
64292;BME280;50628;51.008;13.658;2023-08-08T00:05:29;99503.34;;;13.29;100.00
64292;BME280;50628;51.008;13.658;2023-08-08T00:10:31;99493.41;;;13.32;100.00
64292;BME280;50628;51.008;13.658;2023-08-08T00:15:33;99493.28;;;13.24;100.00
64292;BME280;50628;51.008;13.658;2023-08-08T00:20:36;99492.06;;;13.28;100.00
64292;BME280;50628;51.008;13.658;2023-08-08T00:25:38;99481.47;;;13.20;100.00
64292;BME280;50628;51.008;13.658;2023-08-08T00:30:40;99480.97;;;13.16;100.00
64292;BME280;50628;51.008;13.658;2023-08-08T00:35:43;99472.75;;;13.11;100.00
64292;BME280;50628;51.008;13.658;2023-08-08T00:40:46;99477.19;;;13.01;100.00
64292;BME280;50628;51.008;13.658;2023-08-08T00:45:48;99475.16;;;12.95;100.00
64292;BME280;50628;51.008;13.658;2023-08-08T00:50:51;99469.16;;;12.85;100.00
64292;BME280;50628;51.008;13.658;2023-08-08T00:55:53;99468.13;;;12.77;100.00
64292;BME280;50628;51.008;13.658;2023-08-08T01:00:56;99478.69;;;12.76;100.00
64292;BME280;50628;51.008;13.658;2023-08-08T01:06:13;99480.63;;;12.74;100.00
64292;BME280;50628;51.008;13.658;2023-08-08T01:11:17;99478.31;;;12.71;100.00
64292;BME280;50628;51.008;13.658;2023-08-08T01:16:20;99467.03;;;12.70;100.00
64292;BME280;50628;51.008;13.658;2023-08-08T01:21:25;99460.41;;;12.76;100.00
64292;BME280;50628;51.008;13.658;2023-08-08T01:26:31;99466.09;;;12.62;100.00
64292;BME280;50628;51.008;13.658;2023-08-08T01:31:34;99459.09;;;12.62;100.00
64292;BME280;50628;51.008;13.658;2023-08-08T01:36:42;99466.25;;;12.60;100.00
64292;BME280;50628;51.008;13.658;2023-08-08T01:41:49;99461.75;;;12.52;100.00
64292;BME280;50628;51.008;13.658;2023-08-08T01:46:53;99456.06;;;12.57;100.00
64292;BME280;50628;51.008;13.658;2023-08-08T01:51:55;99455.34;;;12.65;100.00
64292;BME280;50628;51.008;13.658;2023-08-08T01:56:58;99461.53;;;12.73;100.00
64292;BME280;50628;51.008;13.658;2023-08-08T02:02:00;99457.16;;;12.64;100.00
64292;BME280;50628;51.008;13.658;2023-08-08T02:07:03;99454.41;;;12.66;100.00
64292;BME280;50628;51.008;13.658;2023-08-08T02:12:07;99461.84;;;12.61;100.00
64292;BME280;50628;51.008;13.658;2023-08-08T02:17:09;99458.69;;;12.57;100.00
64292;BME280;50628;51.008;13.658;2023-08-08T02:22:11;99465.19;;;12.53;100.00
64292;BME280;50628;51.008;13.658;2023-08-08T02:27:14;99454.75;;;12.53;100.00
64292;BME280;50628;51.008;13.658;2023-08-08T02:32:16;99461.75;;;12.52;100.00
64292;BME280;50628;51.008;13.658;2023-08-08T02:37:18;99459.44;;;12.40;100.00
64292;BME280;50628;51.008;13.658;2023-08-08T02:42:21;99458.78;;;12.38;100.00
64292;BME280;50628;51.008;13.658;2023-08-08T02:47:23;99459.31;;;12.31;100.00
64292;BME280;50628;51.008;13.658;2023-08-08T02:52:25;99455.47;;;12.36;100.00
64292;BME280;50628;51.008;13.658;2023-08-08T02:57:29;99453.59;;;12.28;100.00
64292;BME280;50628;51.008;13.658;2023-08-08T03:02:31;99459.50;;;12.30;100.00
64292;BME280;50628;51.008;13.658;2023-08-08T03:07:33;99464.31;;;12.25;100.00
64292;BME280;50628;51.008;13.658;2023-08-08T03:12:37;99455.94;;;12.11;100.00
64292;BME280;50628;51.008;13.658;2023-08-08T03:17:41;99463.06;;;12.09;100.00
64292;BME280;50628;51.008;13.658;2023-08-08T03:22:44;99463.22;;;12.08;100.00
64292;BME280;50628;51.008;13.658;2023-08-08T03:27:47;99453.91;;;11.96;100.00
64292;BME280;50628;51.008;13.658;2023-08-08T03:32:50;99454.19;;;11.93;100.00
64292;BME280;50628;51.008;13.658;2023-08-08T03:37:52;99456.13;;;11.90;100.00
64292;BME280;50628;51.008;13.658;2023-08-08T03:42:55;99446.38;;;12.02;100.00
64292;BME280;50628;51.008;13.658;2023-08-08T03:47:57;99457.22;;;11.98;100.00
64292;BME280;50628;51.008;13.658;2023-08-08T03:52:59;99449.50;;;11.96;100.00
64292;BME280;50628;51.008;13.658;2023-08-08T03:58:02;99457.06;;;11.99;100.00
64292;BME280;50628;51.008;13.658;2023-08-08T04:03:06;99453.34;;;12.02;100.00
64292;BME280;50628;51.008;13.658;2023-08-08T04:08:07;99451.13;;;12.07;100.00
64292;BME280;50628;51.008;13.658;2023-08-08T04:13:11;99448.97;;;12.02;100.00
64292;BME280;50628;51.008;13.658;2023-08-08T04:18:13;99441.69;;;12.06;100.00
64292;BME280;50628;51.008;13.658;2023-08-08T04:23:14;99435.91;;;12.12;100.00
64292;BME280;50628;51.008;13.658;2023-08-08T04:28:18;99428.22;;;12.10;100.00
64292;BME280;50628;51.008;13.658;2023-08-08T04:33:20;99434.94;;;12.13;100.00
64292;BME280;50628;51.008;13.658;2023-08-08T04:38:21;99440.81;;;12.25;100.00
64292;BME280;50628;51.008;13.658;2023-08-08T04:43:25;99445.72;;;12.38;100.00
64292;BME280;50628;51.008;13.658;2023-08-08T04:48:28;99444.03;;;12.46;100.00
64292;BME280;50628;51.008;13.658;2023-08-08T04:53:30;99449.28;;;12.74;100.00
64292;BME280;50628;51.008;13.658;2023-08-08T04:58:33;99461.44;;;12.65;100.00
64292;BME280;50628;51.008;13.658;2023-08-08T05:03:35;99459.72;;;12.74;100.00
64292;BME280;50628;51.008;13.658;2023-08-08T05:08:37;99454.22;;;12.77;100.00
64292;BME280;50628;51.008;13.658;2023-08-08T05:13:40;99440.59;;;12.83;100.00
64292;BME280;50628;51.008;13.658;2023-08-08T05:18:43;99445.69;;;13.03;100.00
64292;BME280;50628;51.008;13.658;2023-08-08T05:23:45;99434.91;;;13.15;100.00
64292;BME280;50628;51.008;13.658;2023-08-08T05:28:49;99424.41;;;13.43;100.00
64292;BME280;50628;51.008;13.658;2023-08-08T05:33:50;99428.66;;;13.62;100.00
64292;BME280;50628;51.008;13.658;2023-08-08T05:38:53;99434.56;;;13.64;100.00
64292;BME280;50628;51.008;13.658;2023-08-08T05:43:56;99443.97;;;13.75;100.00
64292;BME280;50628;51.008;13.658;2023-08-08T05:48:58;99440.22;;;13.77;100.00
64292;BME280;50628;51.008;13.658;2023-08-08T05:54:01;99442.16;;;13.75;100.00
64292;BME280;50628;51.008;13.658;2023-08-08T05:59:06;99438.41;;;13.78;100.00
64292;BME280;50628;51.008;13.658;2023-08-08T06:04:08;99436.66;;;13.78;100.00
64292;BME280;50628;51.008;13.658;2023-08-08T06:09:09;99442.09;;;13.67;100.00
64292;BME280;50628;51.008;13.658;2023-08-08T06:14:13;99442.47;;;13.72;100.00
64292;BME280;50628;51.008;13.658;2023-08-08T06:19:15;99453.28;;;13.77;100.00
64292;BME280;50628;51.008;13.658;2023-08-08T06:24:17;99442.06;;;13.85;100.00
64292;BME280;50628;51.008;13.658;2023-08-08T06:29:20;99456.81;;;13.86;100.00
64292;BME280;50628;51.008;13.658;2023-08-08T06:34:22;99448.28;;;13.84;100.00
64292;BME280;50628;51.008;13.658;2023-08-08T06:39:24;99448.75;;;13.79;100.00
64292;BME280;50628;51.008;13.658;2023-08-08T06:44:27;99443.88;;;13.84;100.00
64292;BME280;50628;51.008;13.658;2023-08-08T06:49:29;99442.75;;;13.87;100.00
64292;BME280;50628;51.008;13.658;2023-08-08T06:54:31;99443.25;;;13.91;100.00
64292;BME280;50628;51.008;13.658;2023-08-08T06:59:34;99441.69;;;13.98;100.00
64292;BME280;50628;51.008;13.658;2023-08-08T07:04:36;99444.28;;;13.98;100.00
64292;BME280;50628;51.008;13.658;2023-08-08T07:09:38;99452.59;;;14.11;100.00
64292;BME280;50628;51.008;13.658;2023-08-08T07:14:41;99462.22;;;14.11;100.00
64292;BME280;50628;51.008;13.658;2023-08-08T07:19:43;99453.53;;;13.84;100.00
64292;BME280;50628;51.008;13.658;2023-08-08T07:24:45;99441.19;;;13.76;100.00
64292;BME280;50628;51.008;13.658;2023-08-08T07:29:48;99433.00;;;13.71;100.00
64292;BME280;50628;51.008;13.658;2023-08-08T07:34:50;99439.09;;;13.80;100.00
64292;BME280;50628;51.008;13.658;2023-08-08T07:39:52;99431.78;;;13.83;100.00
64292;BME280;50628;51.008;13.658;2023-08-08T07:44:55;99437.25;;;14.16;100.00
64292;BME280;50628;51.008;13.658;2023-08-08T07:49:57;99447.13;;;14.31;100.00
64292;BME280;50628;51.008;13.658;2023-08-08T07:54:58;99441.47;;;14.43;100.00
64292;BME280;50628;51.008;13.658;2023-08-08T08:00:02;99432.91;;;14.59;100.00
64292;BME280;50628;51.008;13.658;2023-08-08T08:05:12;99431.84;;;14.78;100.00
64292;BME280;50628;51.008;13.658;2023-08-08T08:10:14;99427.00;;;15.08;100.00
64292;BME280;50628;51.008;13.658;2023-08-08T08:15:17;99425.72;;;15.20;100.00
64292;BME280;50628;51.008;13.658;2023-08-08T08:20:19;99429.38;;;15.68;100.00
64292;BME280;50628;51.008;13.658;2023-08-08T08:25:21;99422.84;;;15.72;100.00
64292;BME280;50628;51.008;13.658;2023-08-08T08:30:25;99427.44;;;15.78;100.00
64292;BME280;50628;51.008;13.658;2023-08-08T08:35:27;99419.41;;;15.80;100.00
64292;BME280;50628;51.008;13.658;2023-08-08T08:40:30;99422.03;;;15.88;100.00
64292;BME280;50628;51.008;13.658;2023-08-08T08:45:37;99416.00;;;16.35;100.00
64292;BME280;50628;51.008;13.658;2023-08-08T08:50:41;99421.28;;;16.27;100.00
64292;BME280;50628;51.008;13.658;2023-08-08T08:55:44;99429.84;;;16.21;100.00
64292;BME280;50628;51.008;13.658;2023-08-08T09:00:47;99424.47;;;16.62;100.00
64292;BME280;50628;51.008;13.658;2023-08-08T09:05:51;99417.50;;;16.30;100.00
64292;BME280;50628;51.008;13.658;2023-08-08T09:10:55;99433.28;;;16.21;100.00
64292;BME280;50628;51.008;13.658;2023-08-08T09:15:59;99438.03;;;16.26;100.00
64292;BME280;50628;51.008;13.658;2023-08-08T09:21:01;99428.66;;;16.32;100.00
64292;BME280;50628;51.008;13.658;2023-08-08T09:26:02;99434.94;;;16.14;100.00
64292;BME280;50628;51.008;13.658;2023-08-08T09:31:06;99436.75;;;16.14;100.00
64292;BME280;50628;51.008;13.658;2023-08-08T09:36:13;99420.53;;;16.10;100.00
64292;BME280;50628;51.008;13.658;2023-08-08T09:41:15;99417.88;;;16.18;100.00
64292;BME280;50628;51.008;13.658;2023-08-08T09:46:20;99420.63;;;16.33;100.00
64292;BME280;50628;51.008;13.658;2023-08-08T09:51:22;99426.34;;;16.37;100.00
64292;BME280;50628;51.008;13.658;2023-08-08T09:56:25;99434.69;;;16.49;100.00
64292;BME280;50628;51.008;13.658;2023-08-08T10:01:29;99426.94;;;16.55;100.00
64292;BME280;50628;51.008;13.658;2023-08-08T10:06:31;99429.78;;;16.37;100.00
64292;BME280;50628;51.008;13.658;2023-08-08T10:11:34;99415.72;;;16.70;100.00
64292;BME280;50628;51.008;13.658;2023-08-08T10:16:38;99417.66;;;16.84;100.00
64292;BME280;50628;51.008;13.658;2023-08-08T10:21:43;99428.44;;;16.97;100.00
64292;BME280;50628;51.008;13.658;2023-08-08T10:26:52;99409.69;;;17.00;100.00
64292;BME280;50628;51.008;13.658;2023-08-08T10:31:58;99400.03;;;17.24;100.00
64292;BME280;50628;51.008;13.658;2023-08-08T10:37:00;99395.84;;;17.52;100.00
64292;BME280;50628;51.008;13.658;2023-08-08T10:42:06;99394.84;;;17.53;100.00
64292;BME280;50628;51.008;13.658;2023-08-08T10:47:11;99401.22;;;17.59;100.00
64292;BME280;50628;51.008;13.658;2023-08-08T10:52:14;99387.84;;;17.69;100.00
64292;BME280;50628;51.008;13.658;2023-08-08T10:57:16;99377.00;;;17.87;99.75
64292;BME280;50628;51.008;13.658;2023-08-08T11:02:21;99385.94;;;17.78;98.44
64292;BME280;50628;51.008;13.658;2023-08-08T11:07:27;99363.75;;;17.57;99.12
64292;BME280;50628;51.008;13.658;2023-08-08T11:12:29;99363.78;;;17.72;98.57
64292;BME280;50628;51.008;13.658;2023-08-08T11:17:34;99362.09;;;17.94;96.99
64292;BME280;50628;51.008;13.658;2023-08-08T11:22:36;99351.81;;;17.99;95.86
64292;BME280;50628;51.008;13.658;2023-08-08T11:27:39;99351.94;;;18.06;92.33
64292;BME280;50628;51.008;13.658;2023-08-08T11:32:45;99339.66;;;18.43;92.95
64292;BME280;50628;51.008;13.658;2023-08-08T11:37:47;99330.84;;;18.72;90.46
64292;BME280;50628;51.008;13.658;2023-08-08T11:42:50;99333.28;;;19.10;88.48
64292;BME280;50628;51.008;13.658;2023-08-08T11:47:55;99327.06;;;19.17;80.87
64292;BME280;50628;51.008;13.658;2023-08-08T11:52:57;99314.88;;;19.66;77.43
64292;BME280;50628;51.008;13.658;2023-08-08T11:57:58;99293.16;;;20.53;74.04
64292;BME280;50628;51.008;13.658;2023-08-08T12:03:02;99303.28;;;20.43;70.11
64292;BME280;50628;51.008;13.658;2023-08-08T12:08:05;99275.97;;;20.78;67.55
64292;BME280;50628;51.008;13.658;2023-08-08T12:13:07;99275.72;;;20.04;69.83
64292;BME280;50628;51.008;13.658;2023-08-08T12:18:11;99280.38;;;20.02;71.79
64292;BME280;50628;51.008;13.658;2023-08-08T12:23:14;99275.78;;;19.83;71.64
64292;BME280;50628;51.008;13.658;2023-08-08T12:28:16;99273.16;;;20.24;71.71
64292;BME280;50628;51.008;13.658;2023-08-08T12:33:19;99272.63;;;19.94;71.04
64292;BME280;50628;51.008;13.658;2023-08-08T12:38:21;99287.19;;;19.83;71.80
64292;BME280;50628;51.008;13.658;2023-08-08T12:43:23;99284.28;;;19.72;70.68
64292;BME280;50628;51.008;13.658;2023-08-08T12:48:26;99280.59;;;20.01;71.54
64292;BME280;50628;51.008;13.658;2023-08-08T12:53:28;99260.50;;;20.13;70.56
64292;BME280;50628;51.008;13.658;2023-08-08T12:58:30;99271.91;;;20.95;68.02
64292;BME280;50628;51.008;13.658;2023-08-08T13:03:33;99261.38;;;20.27;67.33
64292;BME280;50628;51.008;13.658;2023-08-08T13:08:35;99274.66;;;19.99;66.43
64292;BME280;50628;51.008;13.658;2023-08-08T13:13:37;99263.25;;;19.92;68.38
64292;BME280;50628;51.008;13.658;2023-08-08T13:18:40;99265.56;;;20.76;65.87
64292;BME280;50628;51.008;13.658;2023-08-08T13:23:42;99254.22;;;20.21;68.14
64292;BME280;50628;51.008;13.658;2023-08-08T13:28:44;99242.75;;;19.94;69.98
64292;BME280;50628;51.008;13.658;2023-08-08T13:33:47;99273.09;;;19.70;76.71
64292;BME280;50628;51.008;13.658;2023-08-08T13:38:49;99261.72;;;20.17;77.32
64292;BME280;50628;51.008;13.658;2023-08-08T13:43:51;99254.06;;;20.29;77.29
64292;BME280;50628;51.008;13.658;2023-08-08T13:48:55;99248.25;;;20.05;72.38
64292;BME280;50628;51.008;13.658;2023-08-08T13:53:56;99280.47;;;19.81;72.44
64292;BME280;50628;51.008;13.658;2023-08-08T13:58:58;99305.78;;;18.40;98.95
64292;BME280;50628;51.008;13.658;2023-08-08T14:04:02;99272.38;;;18.47;100.00
64292;BME280;50628;51.008;13.658;2023-08-08T14:09:04;99256.09;;;18.58;100.00
64292;BME280;50628;51.008;13.658;2023-08-08T14:14:06;99252.41;;;18.52;100.00
64292;BME280;50628;51.008;13.658;2023-08-08T14:19:09;99260.66;;;18.28;100.00
64292;BME280;50628;51.008;13.658;2023-08-08T14:24:11;99261.81;;;18.25;100.00
64292;BME280;50628;51.008;13.658;2023-08-08T14:29:13;99262.44;;;18.42;100.00
64292;BME280;50628;51.008;13.658;2023-08-08T14:34:16;99262.00;;;18.60;100.00
64292;BME280;50628;51.008;13.658;2023-08-08T14:39:18;99255.09;;;18.59;100.00
64292;BME280;50628;51.008;13.658;2023-08-08T14:44:20;99258.75;;;18.58;100.00
64292;BME280;50628;51.008;13.658;2023-08-08T14:49:23;99257.53;;;18.60;100.00
64292;BME280;50628;51.008;13.658;2023-08-08T14:54:26;99267.19;;;18.53;99.21
64292;BME280;50628;51.008;13.658;2023-08-08T14:59:28;99304.84;;;18.47;100.00
64292;BME280;50628;51.008;13.658;2023-08-08T15:04:32;99304.16;;;17.94;100.00
64292;BME280;50628;51.008;13.658;2023-08-08T15:09:34;99311.44;;;17.92;100.00
64292;BME280;50628;51.008;13.658;2023-08-08T15:14:37;99300.06;;;17.62;100.00
64292;BME280;50628;51.008;13.658;2023-08-08T15:19:41;99293.88;;;17.55;100.00
64292;BME280;50628;51.008;13.658;2023-08-08T15:24:42;99304.06;;;17.72;100.00
64292;BME280;50628;51.008;13.658;2023-08-08T15:29:45;99297.81;;;18.18;100.00
64292;BME280;50628;51.008;13.658;2023-08-08T15:34:48;99321.06;;;18.66;100.00
64292;BME280;50628;51.008;13.658;2023-08-08T15:39:50;99322.38;;;19.13;100.00
64292;BME280;50628;51.008;13.658;2023-08-08T15:44:52;99326.63;;;18.92;100.00
64292;BME280;50628;51.008;13.658;2023-08-08T15:49:55;99337.25;;;18.63;96.80
64292;BME280;50628;51.008;13.658;2023-08-08T15:54:57;99353.00;;;18.26;97.93
64292;BME280;50628;51.008;13.658;2023-08-08T15:59:59;99362.03;;;18.02;100.00
64292;BME280;50628;51.008;13.658;2023-08-08T16:05:02;99351.41;;;17.58;100.00
64292;BME280;50628;51.008;13.658;2023-08-08T16:10:05;99357.94;;;17.62;100.00
64292;BME280;50628;51.008;13.658;2023-08-08T16:15:08;99368.53;;;17.53;100.00
64292;BME280;50628;51.008;13.658;2023-08-08T16:20:12;99362.66;;;17.51;100.00
64292;BME280;50628;51.008;13.658;2023-08-08T16:25:14;99375.56;;;17.38;100.00
64292;BME280;50628;51.008;13.658;2023-08-08T16:30:16;99393.75;;;17.25;100.00
64292;BME280;50628;51.008;13.658;2023-08-08T16:35:19;99415.66;;;17.17;100.00
64292;BME280;50628;51.008;13.658;2023-08-08T16:40:21;99432.78;;;17.13;100.00
64292;BME280;50628;51.008;13.658;2023-08-08T16:45:23;99439.94;;;16.96;100.00
64292;BME280;50628;51.008;13.658;2023-08-08T16:50:26;99408.84;;;16.60;100.00
64292;BME280;50628;51.008;13.658;2023-08-08T16:55:28;99427.97;;;16.46;100.00
64292;BME280;50628;51.008;13.658;2023-08-08T17:00:31;99423.28;;;16.17;100.00
64292;BME280;50628;51.008;13.658;2023-08-08T17:05:34;99424.59;;;16.05;100.00
64292;BME280;50628;51.008;13.658;2023-08-08T17:10:36;99415.63;;;15.91;100.00
64292;BME280;50628;51.008;13.658;2023-08-08T17:15:40;99411.53;;;15.80;100.00
64292;BME280;50628;51.008;13.658;2023-08-08T17:20:43;99405.44;;;15.63;100.00
64292;BME280;50628;51.008;13.658;2023-08-08T17:25:45;99394.97;;;15.55;100.00
64292;BME280;50628;51.008;13.658;2023-08-08T17:30:47;99402.97;;;15.53;100.00
64292;BME280;50628;51.008;13.658;2023-08-08T17:35:50;99419.53;;;15.46;100.00
64292;BME280;50628;51.008;13.658;2023-08-08T17:40:52;99398.56;;;15.38;100.00
64292;BME280;50628;51.008;13.658;2023-08-08T17:45:55;99396.59;;;15.40;100.00
64292;BME280;50628;51.008;13.658;2023-08-08T17:50:59;99393.78;;;15.49;100.00
64292;BME280;50628;51.008;13.658;2023-08-08T17:56:02;99388.72;;;15.56;100.00
64292;BME280;50628;51.008;13.658;2023-08-08T18:01:05;99393.78;;;15.49;100.00
64292;BME280;50628;51.008;13.658;2023-08-08T18:06:08;99401.50;;;15.43;100.00
64292;BME280;50628;51.008;13.658;2023-08-08T18:11:10;99394.28;;;15.36;100.00
64292;BME280;50628;51.008;13.658;2023-08-08T18:16:12;99397.38;;;15.24;100.00
64292;BME280;50628;51.008;13.658;2023-08-08T18:21:15;99410.66;;;15.22;100.00
64292;BME280;50628;51.008;13.658;2023-08-08T18:26:17;99420.97;;;15.15;100.00
64292;BME280;50628;51.008;13.658;2023-08-08T18:31:19;99419.97;;;15.17;100.00
64292;BME280;50628;51.008;13.658;2023-08-08T18:36:22;99414.91;;;15.15;100.00
64292;BME280;50628;51.008;13.658;2023-08-08T18:41:24;99414.91;;;15.15;100.00
64292;BME280;50628;51.008;13.658;2023-08-08T18:46:26;99409.81;;;15.13;100.00
64292;BME280;50628;51.008;13.658;2023-08-08T18:51:30;99419.97;;;15.17;100.00
64292;BME280;50628;51.008;13.658;2023-08-08T19:01:58;99421.56;;;15.01;100.00
64292;BME280;50628;51.008;13.658;2023-08-08T19:07:01;99417.13;;;14.93;100.00
64292;BME280;50628;51.008;13.658;2023-08-08T19:12:04;99434.00;;;14.91;100.00
64292;BME280;50628;51.008;13.658;2023-08-08T19:17:06;99424.84;;;14.87;100.00
64292;BME280;50628;51.008;13.658;2023-08-08T19:22:09;99426.28;;;14.81;100.00
64292;BME280;50628;51.008;13.658;2023-08-08T19:27:11;99427.06;;;14.74;100.00
64292;BME280;50628;51.008;13.658;2023-08-08T19:32:13;99410.66;;;14.63;100.00
64292;BME280;50628;51.008;13.658;2023-08-08T19:37:16;99404.91;;;14.60;100.00
64292;BME280;50628;51.008;13.658;2023-08-08T19:42:18;99421.38;;;14.52;100.00
64292;BME280;50628;51.008;13.658;2023-08-08T19:47:20;99409.56;;;14.48;100.00
64292;BME280;50628;51.008;13.658;2023-08-08T19:52:23;99405.00;;;14.50;100.00
64292;BME280;50628;51.008;13.658;2023-08-08T19:57:25;99409.25;;;14.51;100.00
64292;BME280;50628;51.008;13.658;2023-08-08T20:02:27;99402.72;;;14.47;100.00
64292;BME280;50628;51.008;13.658;2023-08-08T20:07:30;99401.56;;;14.49;100.00
64292;BME280;50628;51.008;13.658;2023-08-08T20:12:32;99402.91;;;14.54;100.00
64292;BME280;50628;51.008;13.658;2023-08-08T20:17:34;99399.34;;;14.55;100.00
64292;BME280;50628;51.008;13.658;2023-08-08T20:22:37;99403.03;;;14.44;100.00
64292;BME280;50628;51.008;13.658;2023-08-08T20:27:39;99400.91;;;14.47;100.00
64292;BME280;50628;51.008;13.658;2023-08-08T20:32:41;99406.88;;;14.58;100.00
64292;BME280;50628;51.008;13.658;2023-08-08T20:37:45;99406.59;;;14.43;100.00
64292;BME280;50628;51.008;13.658;2023-08-08T20:42:47;99401.91;;;14.46;100.00
64292;BME280;50628;51.008;13.658;2023-08-08T20:48:22;99408.41;;;14.42;100.00
64292;BME280;50628;51.008;13.658;2023-08-08T21:12:24;99426.22;;;14.39;100.00
64292;BME280;50628;51.008;13.658;2023-08-08T21:17:26;99433.25;;;14.38;100.00
64292;BME280;50628;51.008;13.658;2023-08-08T21:22:28;99439.13;;;14.32;100.00
64292;BME280;50628;51.008;13.658;2023-08-08T21:27:32;99446.97;;;14.32;100.00
64292;BME280;50628;51.008;13.658;2023-08-08T21:32:33;99446.16;;;14.32;100.00
64292;BME280;50628;51.008;13.658;2023-08-08T21:37:35;99448.16;;;14.38;100.00
64292;BME280;50628;51.008;13.658;2023-08-08T21:42:40;99451.22;;;14.33;100.00
64292;BME280;50628;51.008;13.658;2023-08-08T21:47:42;99463.03;;;14.37;100.00
64292;BME280;50628;51.008;13.658;2023-08-08T21:52:43;99454.97;;;14.31;100.00
64292;BME280;50628;51.008;13.658;2023-08-08T21:57:47;99462.78;;;14.22;100.00
64292;BME280;50628;51.008;13.658;2023-08-08T22:02:48;99461.97;;;14.22;100.00
64292;BME280;50628;51.008;13.658;2023-08-08T22:07:50;99467.34;;;14.20;100.00
64292;BME280;50628;51.008;13.658;2023-08-08T22:12:54;99466.03;;;14.16;100.00
64292;BME280;50628;51.008;13.658;2023-08-08T22:17:58;99462.78;;;14.22;100.00
64292;BME280;50628;51.008;13.658;2023-08-08T22:23:04;99458.69;;;14.20;100.00
64292;BME280;50628;51.008;13.658;2023-08-08T22:28:08;99471.78;;;14.20;100.00
64292;BME280;50628;51.008;13.658;2023-08-08T22:33:11;99463.19;;;14.10;100.00
64292;BME280;50628;51.008;13.658;2023-08-08T22:38:13;99458.28;;;14.06;100.00
64292;BME280;50628;51.008;13.658;2023-08-08T22:43:16;99466.63;;;14.10;100.00
64292;BME280;50628;51.008;13.658;2023-08-08T22:48:18;99470.22;;;14.09;100.00
64292;BME280;50628;51.008;13.658;2023-08-08T22:53:20;99466.41;;;14.03;100.00
64292;BME280;50628;51.008;13.658;2023-08-08T22:58:23;99474.44;;;14.02;100.00
64292;BME280;50628;51.008;13.658;2023-08-08T23:03:25;99472.56;;;13.94;100.00
64292;BME280;50628;51.008;13.658;2023-08-08T23:08:28;99466.88;;;13.99;100.00
64292;BME280;50628;51.008;13.658;2023-08-08T23:13:32;99468.00;;;13.96;100.00
64292;BME280;50628;51.008;13.658;2023-08-08T23:18:34;99467.47;;;13.93;100.00
64292;BME280;50628;51.008;13.658;2023-08-08T23:23:36;99473.03;;;13.90;100.00
64292;BME280;50628;51.008;13.658;2023-08-08T23:28:39;99464.72;;;13.94;100.00
64292;BME280;50628;51.008;13.658;2023-08-08T23:33:41;99471.13;;;14.00;100.00
64292;BME280;50628;51.008;13.658;2023-08-08T23:38:43;99470.47;;;13.98;100.00
64292;BME280;50628;51.008;13.658;2023-08-08T23:43:46;99466.72;;;14.00;100.00
64292;BME280;50628;51.008;13.658;2023-08-08T23:48:48;99472.56;;;13.94;100.00
64292;BME280;50628;51.008;13.658;2023-08-08T23:53:50;99474.38;;;13.94;100.00
64292;BME280;50628;51.008;13.658;2023-08-08T23:58:53;99461.94;;;13.96;100.00
